createdAt,value
2022-11-04T00:01:54.430Z,100.00
2022-11-04T00:04:25.791Z,100.00
2022-11-04T00:06:54.480Z,100.00
2022-11-04T00:09:30.506Z,100.00
2022-11-04T00:12:17.137Z,100.00
2022-11-04T00:14:44.486Z,100.00
2022-11-04T00:17:30.908Z,100.00
2022-11-04T00:20:16.851Z,100.00
2022-11-04T00:23:07.168Z,100.00
2022-11-04T00:25:53.452Z,100.00
2022-11-04T00:28:39.426Z,100.00
2022-11-04T00:31:27.659Z,100.00
2022-11-04T00:33:58.540Z,100.00
2022-11-04T00:36:26.716Z,100.00
2022-11-04T00:38:54.272Z,100.00
2022-11-04T00:41:26.411Z,100.00
2022-11-04T00:44:05.279Z,100.00
2022-11-04T00:46:34.753Z,100.00
2022-11-04T00:49:02.259Z,100.00
2022-11-04T00:51:29.644Z,100.00
2022-11-04T00:53:58.223Z,100.00
2022-11-04T00:56:26.201Z,100.00
2022-11-04T00:58:53.640Z,100.00
2022-11-04T01:01:21.270Z,100.00
2022-11-04T01:03:51.883Z,100.00
2022-11-04T01:06:21.616Z,100.00
2022-11-04T01:08:49.778Z,100.00
2022-11-04T01:11:17.139Z,100.00
2022-11-04T01:13:44.535Z,100.00
2022-11-04T01:16:13.149Z,100.00
2022-11-04T01:18:41.700Z,100.00
2022-11-04T01:21:13.648Z,100.00
2022-11-04T01:23:43.325Z,100.00
2022-11-04T01:26:20.391Z,100.00
2022-11-04T01:28:48.042Z,100.00
2022-11-04T01:31:22.089Z,100.00
2022-11-04T01:33:51.472Z,100.00
2022-11-04T01:36:20.688Z,100.00
2022-11-04T01:38:49.160Z,100.00
2022-11-04T01:41:25.123Z,100.00
2022-11-04T01:44:04.289Z,100.00
2022-11-04T01:46:42.972Z,100.00
2022-11-04T01:49:33.420Z,100.00
2022-11-04T01:52:45.599Z,100.00
2022-11-04T01:55:23.926Z,100.00
2022-11-04T01:57:58.196Z,100.00
2022-11-04T02:00:25.660Z,100.00
2022-11-04T02:03:12.891Z,100.00
2022-11-04T02:05:41.751Z,100.00
2022-11-04T02:08:11.570Z,100.00
2022-11-04T02:10:46.650Z,100.00
2022-11-04T02:13:14.180Z,100.00
2022-11-04T02:16:27.309Z,100.00
2022-11-04T02:19:13.058Z,100.00
2022-11-04T02:21:57.491Z,100.00
2022-11-04T02:25:06.603Z,100.00
2022-11-04T02:28:06.315Z,100.00
2022-11-04T02:31:04.755Z,100.00
2022-11-04T02:33:44.624Z,100.00
2022-11-04T02:36:44.063Z,100.00
2022-11-04T02:39:58.454Z,100.00
2022-11-04T02:42:36.424Z,100.00
2022-11-04T02:45:35.550Z,100.00
2022-11-04T02:48:12.910Z,100.00
2022-11-04T02:50:59.957Z,100.00
2022-11-04T02:53:37.867Z,100.00
2022-11-04T02:56:08.049Z,100.00
2022-11-04T02:58:43.986Z,100.00
2022-11-04T03:01:17.494Z,100.00
2022-11-04T03:03:52.600Z,100.00
2022-11-04T03:06:25.511Z,100.00
2022-11-04T03:08:55.762Z,100.00
2022-11-04T03:11:27.568Z,100.00
2022-11-04T03:14:05.411Z,100.00
2022-11-04T03:16:42.931Z,100.00
2022-11-04T03:19:40.465Z,100.00
2022-11-04T03:22:17.595Z,100.00
2022-11-04T03:24:47.571Z,100.00
2022-11-04T03:27:20.629Z,100.00
2022-11-04T03:30:14.904Z,100.00
2022-11-04T03:33:01.744Z,100.00
2022-11-04T03:35:29.519Z,100.00
2022-11-04T03:37:57.967Z,100.00
2022-11-04T03:40:26.182Z,100.00
2022-11-04T03:43:07.809Z,100.00
2022-11-04T03:45:35.876Z,100.00
2022-11-04T03:48:04.234Z,100.00
2022-11-04T03:50:43.936Z,100.00
2022-11-04T03:53:14.213Z,100.00
2022-11-04T03:56:02.217Z,100.00
2022-11-04T03:59:26.294Z,100.00
2022-11-04T04:02:15.241Z,100.00
2022-11-04T04:05:12.077Z,100.00
2022-11-04T04:07:49.812Z,100.00
2022-11-04T04:10:47.351Z,100.00
2022-11-04T04:13:35.999Z,100.00
2022-11-04T04:16:13.154Z,100.00
2022-11-04T04:18:58.496Z,100.00
2022-11-04T04:21:37.570Z,100.00
2022-11-04T04:24:28.591Z,100.00
2022-11-04T04:27:16.875Z,100.00
2022-11-04T04:29:46.572Z,100.00
2022-11-04T04:32:15.981Z,100.00
2022-11-04T04:34:43.469Z,100.00
2022-11-04T04:37:24.184Z,100.00
2022-11-04T04:40:22.249Z,100.00
2022-11-04T04:43:12.367Z,100.00
2022-11-04T04:45:48.218Z,100.00
2022-11-04T04:48:17.102Z,100.00
2022-11-04T04:50:49.700Z,100.00
2022-11-04T04:53:17.171Z,100.00
2022-11-04T04:55:44.500Z,100.00
2022-11-04T04:58:11.917Z,100.00
2022-11-04T05:00:39.428Z,100.00
2022-11-04T05:03:07.138Z,100.00
2022-11-04T05:05:34.697Z,100.00
2022-11-04T05:08:07.619Z,100.00
2022-11-04T05:10:35.523Z,100.00
2022-11-04T05:13:21.812Z,100.00
2022-11-04T05:15:49.204Z,100.00
2022-11-04T05:18:16.835Z,100.00
2022-11-04T05:20:44.215Z,100.00
2022-11-04T05:23:13.491Z,100.00
2022-11-04T05:25:42.202Z,100.00
2022-11-04T05:28:11.231Z,100.00
2022-11-04T05:30:39.014Z,100.00
2022-11-04T05:33:07.501Z,100.00
2022-11-04T05:35:35.324Z,100.00
2022-11-04T05:38:02.950Z,100.00
2022-11-04T05:40:30.440Z,100.00
2022-11-04T05:42:59.704Z,100.00
2022-11-04T05:45:29.200Z,100.00
2022-11-04T05:48:02.057Z,100.00
2022-11-04T05:50:31.896Z,100.00
2022-11-04T05:53:00.833Z,100.00
2022-11-04T05:55:28.638Z,100.00
2022-11-04T05:57:57.985Z,100.00
2022-11-04T06:00:27.238Z,100.00
2022-11-04T06:02:59.167Z,100.00
2022-11-04T06:05:28.419Z,100.00
2022-11-04T06:07:56.790Z,100.00
2022-11-04T06:10:25.401Z,100.00
2022-11-04T06:12:52.744Z,100.00
2022-11-04T06:15:20.136Z,100.00
2022-11-04T06:17:47.513Z,100.00
2022-11-04T06:20:14.894Z,100.00
2022-11-04T06:22:42.235Z,100.00
2022-11-04T06:25:09.933Z,100.00
2022-11-04T06:27:37.251Z,100.00
2022-11-04T06:30:05.589Z,100.00
2022-11-04T06:32:33.322Z,100.00
2022-11-04T06:35:00.677Z,100.00
2022-11-04T06:37:28.118Z,100.00
2022-11-04T06:39:55.470Z,100.00
2022-11-04T06:42:23.111Z,100.00
2022-11-04T06:44:50.517Z,100.00
2022-11-04T06:47:23.595Z,100.00
2022-11-04T06:49:52.063Z,100.00
2022-11-04T06:52:19.479Z,100.00
2022-11-04T06:54:47.902Z,100.00
2022-11-04T06:57:15.264Z,100.00
2022-11-04T06:59:43.038Z,100.00
2022-11-04T07:02:11.386Z,100.00
2022-11-04T07:04:38.852Z,100.00
2022-11-04T07:07:06.443Z,100.00
2022-11-04T07:09:35.253Z,100.00
2022-11-04T07:12:02.701Z,100.00
2022-11-04T07:14:30.230Z,100.00
2022-11-04T07:16:57.581Z,100.00
2022-11-04T07:19:24.906Z,100.00
2022-11-04T07:21:52.291Z,100.00
2022-11-04T07:24:19.751Z,100.00
2022-11-04T07:26:47.117Z,100.00
2022-11-04T07:29:14.783Z,100.00
2022-11-04T07:31:43.842Z,100.00
2022-11-04T07:34:11.175Z,100.00
2022-11-04T07:36:38.571Z,100.00
2022-11-04T07:39:06.685Z,100.00
2022-11-04T07:41:34.177Z,100.00
2022-11-04T07:44:05.200Z,100.00
2022-11-04T07:46:33.468Z,100.00
2022-11-04T07:49:00.811Z,100.00
2022-11-04T07:51:28.764Z,100.00
2022-11-04T07:53:56.246Z,100.00
2022-11-04T07:56:24.473Z,100.00
2022-11-04T07:58:52.508Z,100.00
2022-11-04T08:01:23.640Z,100.00
2022-11-04T08:03:52.035Z,100.00
2022-11-04T08:06:21.126Z,100.00
2022-11-04T08:08:48.595Z,100.00
2022-11-04T08:11:21.106Z,100.00
2022-11-04T08:13:48.695Z,100.00
2022-11-04T08:16:23.503Z,100.00
2022-11-04T08:18:55.589Z,100.00
2022-11-04T08:21:22.951Z,100.00
2022-11-04T08:23:51.512Z,100.00
2022-11-04T08:26:21.235Z,100.00
2022-11-04T08:28:50.424Z,100.00
2022-11-04T08:31:24.663Z,100.00
2022-11-04T08:33:54.352Z,100.00
2022-11-04T08:36:34.348Z,100.00
2022-11-04T08:39:07.315Z,100.00
2022-11-04T08:41:41.458Z,100.00
2022-11-04T08:44:09.242Z,100.00
2022-11-04T08:46:39.967Z,100.00
2022-11-04T08:49:10.209Z,100.00
2022-11-04T08:51:46.552Z,100.00
2022-11-04T08:54:13.963Z,100.00
2022-11-04T08:56:41.310Z,100.00
2022-11-04T08:59:10.581Z,100.00
2022-11-04T09:01:38.339Z,100.00
2022-11-04T09:04:05.993Z,100.00
2022-11-04T09:06:39.239Z,100.00
2022-11-04T09:09:11.452Z,100.00
2022-11-04T09:11:41.771Z,100.00
2022-11-04T09:14:10.748Z,100.00
2022-11-04T09:16:40.443Z,100.00
2022-11-04T09:19:08.684Z,100.00
2022-11-04T09:21:36.432Z,100.00
2022-11-04T09:24:04.953Z,100.00
2022-11-04T09:26:32.326Z,100.00
2022-11-04T09:29:00.393Z,100.00
2022-11-04T09:31:30.637Z,100.00
2022-11-04T09:33:58.424Z,100.00
2022-11-04T09:36:26.391Z,100.00
2022-11-04T09:38:53.851Z,100.00
2022-11-04T09:42:06.311Z,100.00
2022-11-04T09:45:19.368Z,100.00
2022-11-04T09:47:42.623Z,100.00
2022-11-04T09:50:23.534Z,100.00
2022-11-04T09:53:08.358Z,100.00
2022-11-04T09:55:50.600Z,100.00
2022-11-04T09:58:18.253Z,100.00
2022-11-04T10:01:11.829Z,100.00
2022-11-04T10:03:59.426Z,100.00
2022-11-04T10:06:47.802Z,100.00
2022-11-04T10:10:05.346Z,100.00
2022-11-04T10:13:04.165Z,100.00
2022-11-04T10:16:25.484Z,100.00
2022-11-04T10:19:44.026Z,100.00
2022-11-04T10:22:33.930Z,100.00
2022-11-04T10:25:04.206Z,100.00
2022-11-04T10:27:39.993Z,100.00
2022-11-04T10:30:19.652Z,100.00
2022-11-04T10:32:59.708Z,100.00
2022-11-04T10:35:39.676Z,100.00
2022-11-04T10:38:39.367Z,100.00
2022-11-04T10:41:38.344Z,100.00
2022-11-04T10:44:14.952Z,100.00
2022-11-04T10:47:03.163Z,100.00
2022-11-04T10:52:50.204Z,100.00
2022-11-04T10:55:56.168Z,100.00
2022-11-04T10:58:29.315Z,100.00
2022-11-04T11:00:59.250Z,100.00
2022-11-04T11:03:34.385Z,100.00
2022-11-04T11:06:18.977Z,99.90
2022-11-04T11:08:46.980Z,100.00
2022-11-04T11:11:16.051Z,99.49
2022-11-04T11:13:46.333Z,98.90
2022-11-04T11:16:27.202Z,98.45
2022-11-04T11:19:11.052Z,97.21
2022-11-04T11:21:49.106Z,97.31
2022-11-04T11:24:26.181Z,97.29
2022-11-04T11:27:11.629Z,96.83
2022-11-04T11:29:42.113Z,96.90
2022-11-04T11:32:44.219Z,96.37
2022-11-04T11:35:17.392Z,97.40
2022-11-04T11:37:48.903Z,97.22
2022-11-04T11:40:57.527Z,97.26
2022-11-04T11:43:35.575Z,96.05
2022-11-04T11:46:04.324Z,95.14
2022-11-04T11:48:38.479Z,95.28
2022-11-04T11:51:07.440Z,95.68
2022-11-04T11:53:38.201Z,94.75
2022-11-04T11:56:52.125Z,94.19
2022-11-04T12:02:59.250Z,94.28
2022-11-04T12:06:22.349Z,94.48
2022-11-04T12:09:34.408Z,93.99
2022-11-04T12:12:40.089Z,94.88
2022-11-04T12:15:44.100Z,94.92
2022-11-04T12:18:55.403Z,94.58
2022-11-04T12:21:35.407Z,93.73
2022-11-04T12:24:36.212Z,94.08
2022-11-04T12:28:04.383Z,93.23
2022-11-04T12:30:50.507Z,93.88
2022-11-04T12:33:43.369Z,92.63
2022-11-04T12:36:44.361Z,93.16
2022-11-04T12:39:37.208Z,93.17
2022-11-04T12:42:45.295Z,92.26
2022-11-04T12:45:47.955Z,91.99
2022-11-04T12:49:14.934Z,91.14
2022-11-04T12:52:09.741Z,91.47
2022-11-04T12:55:01.900Z,91.69
2022-11-04T12:57:39.428Z,91.43
2022-11-04T13:00:18.242Z,91.18
2022-11-04T13:03:09.457Z,91.69
2022-11-04T13:05:54.268Z,91.74
2022-11-04T13:08:34.787Z,91.70
2022-11-04T13:11:25.831Z,91.18
2022-11-04T13:14:23.785Z,92.14
2022-11-04T13:16:53.556Z,92.03
2022-11-04T13:19:31.984Z,92.57
2022-11-04T13:22:22.663Z,92.66
2022-11-04T13:25:06.456Z,93.04
2022-11-04T13:27:39.657Z,92.37
2022-11-04T13:30:25.650Z,91.84
2022-11-04T13:33:13.735Z,91.59
2022-11-04T13:36:12.823Z,91.44
2022-11-04T13:38:45.945Z,91.88
2022-11-04T13:41:21.310Z,91.64
2022-11-04T13:43:57.023Z,90.77
2022-11-04T13:46:30.818Z,90.89
2022-11-04T13:49:18.943Z,90.59
2022-11-04T13:52:01.568Z,90.61
2022-11-04T13:54:46.573Z,90.44
2022-11-04T13:57:19.030Z,90.61
2022-11-04T14:00:11.118Z,90.93
2022-11-04T14:02:49.213Z,91.24
2022-11-04T14:05:29.514Z,90.89
2022-11-04T14:08:02.857Z,90.70
2022-11-04T14:10:48.440Z,91.15
2022-11-04T14:13:28.227Z,91.41
2022-11-04T14:16:13.800Z,91.96
2022-11-04T14:18:45.023Z,91.55
2022-11-04T14:21:15.460Z,91.65
2022-11-04T14:23:50.602Z,91.81
2022-11-04T14:26:23.627Z,92.05
2022-11-04T14:29:16.967Z,91.36
2022-11-04T14:31:51.374Z,91.85
2022-11-04T14:34:37.531Z,91.85
2022-11-04T14:37:23.157Z,92.48
2022-11-04T14:40:00.479Z,91.88
2022-11-04T14:42:50.308Z,92.14
2022-11-04T14:45:24.188Z,92.27
2022-11-04T14:47:59.512Z,92.38
2022-11-04T14:50:28.620Z,92.71
2022-11-04T14:53:05.165Z,92.57
2022-11-04T14:55:32.834Z,92.77
2022-11-04T14:58:28.698Z,92.80
2022-11-04T15:01:01.143Z,93.24
2022-11-04T15:06:40.835Z,93.12
2022-11-04T15:09:26.541Z,92.98
2022-11-04T15:12:29.367Z,93.52
2022-11-04T15:14:59.765Z,93.53
2022-11-04T15:17:32.860Z,94.04
2022-11-04T15:20:04.343Z,93.90
2022-11-04T15:22:31.960Z,94.61
2022-11-04T15:25:05.771Z,94.23
2022-11-04T15:27:34.693Z,94.06
2022-11-04T15:30:05.279Z,94.43
2022-11-04T15:32:32.689Z,94.01
2022-11-04T15:35:00.632Z,94.33
2022-11-04T15:37:30.278Z,94.80
2022-11-04T15:39:59.509Z,94.71
2022-11-04T15:42:39.724Z,94.79
2022-11-04T15:45:52.964Z,94.54
2022-11-04T15:48:37.693Z,95.32
2022-11-04T15:51:26.414Z,95.35
2022-11-04T15:54:18.643Z,94.71
2022-11-04T15:56:55.260Z,95.01
2022-11-04T15:59:31.282Z,95.42
2022-11-04T16:01:59.827Z,94.86
2022-11-04T16:04:29.579Z,95.59
2022-11-04T16:07:08.915Z,95.17
2022-11-04T16:09:53.367Z,95.97
2022-11-04T16:12:23.710Z,95.94
2022-11-04T16:14:54.427Z,95.57
2022-11-04T16:17:24.124Z,94.42
2022-11-04T16:19:59.276Z,94.11
2022-11-04T16:22:33.259Z,93.50
2022-11-04T16:25:04.931Z,93.03
2022-11-04T16:27:34.745Z,93.50
2022-11-04T16:30:21.495Z,93.17
2022-11-04T16:35:53.520Z,92.69
2022-11-04T16:38:20.906Z,92.57
2022-11-04T16:40:49.745Z,92.57
2022-11-04T16:43:21.555Z,92.22
2022-11-04T16:45:53.827Z,92.46
2022-11-04T16:48:24.547Z,92.29
2022-11-04T16:50:51.955Z,93.23
2022-11-04T16:53:19.303Z,91.85
2022-11-04T16:55:47.428Z,92.77
2022-11-04T16:58:18.918Z,91.79
2022-11-04T17:00:46.614Z,92.27
2022-11-04T17:03:21.710Z,92.22
2022-11-04T17:05:51.091Z,92.42
2022-11-04T17:08:18.439Z,92.15
2022-11-04T17:10:46.611Z,92.04
2022-11-04T17:13:14.094Z,92.35
2022-11-04T17:15:42.267Z,92.41
2022-11-04T17:18:14.441Z,92.77
2022-11-04T17:20:45.387Z,92.66
2022-11-04T17:23:15.234Z,92.82
2022-11-04T17:25:43.428Z,93.18
2022-11-04T17:28:10.987Z,92.97
2022-11-04T17:30:38.936Z,92.87
2022-11-04T17:33:08.680Z,93.13
2022-11-04T17:35:41.822Z,93.18
2022-11-04T17:38:14.408Z,93.16
2022-11-04T17:41:01.156Z,93.39
2022-11-04T17:43:47.364Z,93.45
2022-11-04T17:46:34.209Z,93.16
2022-11-04T17:49:09.852Z,93.47
2022-11-04T17:51:39.527Z,93.04
2022-11-04T17:54:07.308Z,93.39
2022-11-04T17:56:34.738Z,93.38
2022-11-04T17:59:04.044Z,93.23
2022-11-04T18:01:34.022Z,93.40
2022-11-04T18:04:02.267Z,93.53
2022-11-04T18:06:32.285Z,93.62
2022-11-04T18:09:00.135Z,93.98
2022-11-04T18:11:48.280Z,94.25
2022-11-04T18:14:18.294Z,94.13
2022-11-04T18:16:48.872Z,93.76
2022-11-04T18:19:19.714Z,94.09
2022-11-04T18:21:48.930Z,94.31
2022-11-04T18:24:17.519Z,94.10
2022-11-04T18:26:45.668Z,94.39
2022-11-04T18:29:13.315Z,94.15
2022-11-04T18:31:46.170Z,94.46
2022-11-04T18:34:19.274Z,94.06
2022-11-04T18:36:48.271Z,94.56
2022-11-04T18:39:18.810Z,94.21
2022-11-04T18:41:46.587Z,94.04
2022-11-04T18:44:22.258Z,93.75
2022-11-04T18:46:50.257Z,94.43
2022-11-04T18:49:18.601Z,94.85
2022-11-04T18:51:46.327Z,94.36
2022-11-04T18:54:14.822Z,94.89
2022-11-04T18:56:42.732Z,94.79
2022-11-04T18:59:12.863Z,94.81
2022-11-04T19:01:41.920Z,94.69
2022-11-04T19:04:09.590Z,95.29
2022-11-04T19:06:42.823Z,95.09
2022-11-04T19:09:44.942Z,95.36
2022-11-04T19:12:20.230Z,94.76
2022-11-04T19:14:47.956Z,94.97
2022-11-04T19:17:15.449Z,95.53
2022-11-04T19:19:42.898Z,95.73
2022-11-04T19:22:11.679Z,95.32
2022-11-04T19:24:39.504Z,95.65
2022-11-04T19:27:07.118Z,95.28
2022-11-04T19:29:34.635Z,95.06
2022-11-04T19:32:02.060Z,95.07
2022-11-04T19:34:29.412Z,94.92
2022-11-04T19:36:56.769Z,95.31
2022-11-04T19:39:24.103Z,95.37
2022-11-04T19:42:09.995Z,94.90
2022-11-04T19:44:37.329Z,95.57
2022-11-04T19:47:04.721Z,95.72
2022-11-04T19:49:32.233Z,95.82
2022-11-04T19:52:00.601Z,96.05
2022-11-04T19:54:28.423Z,95.71
2022-11-04T19:56:56.126Z,96.23
2022-11-04T19:59:23.935Z,96.58
2022-11-04T20:01:51.784Z,96.12
2022-11-04T20:04:19.257Z,96.57
2022-11-04T20:06:46.602Z,96.31
2022-11-04T20:09:14.964Z,96.82
2022-11-04T20:12:00.868Z,96.79
2022-11-04T20:14:29.242Z,96.54
2022-11-04T20:16:56.608Z,96.84
2022-11-04T20:19:24.327Z,96.82
2022-11-04T20:21:51.688Z,96.89
2022-11-04T20:24:19.171Z,97.01
2022-11-04T20:26:47.593Z,97.33
2022-11-04T20:29:18.045Z,97.38
2022-11-04T20:31:45.799Z,97.37
2022-11-04T20:34:14.768Z,98.31
2022-11-04T20:36:42.739Z,97.75
2022-11-04T20:39:15.221Z,97.67
2022-11-04T20:41:44.186Z,98.02
2022-11-04T20:44:14.363Z,98.07
2022-11-04T20:46:44.037Z,98.24
2022-11-04T20:49:12.376Z,98.52
2022-11-04T20:51:48.596Z,98.05
2022-11-04T20:54:17.930Z,97.78
2022-11-04T20:56:45.696Z,98.81
2022-11-04T20:59:13.894Z,98.53
2022-11-04T21:01:44.360Z,98.28
2022-11-04T21:04:18.075Z,99.13
2022-11-04T21:06:47.835Z,99.14
2022-11-04T21:09:18.298Z,98.61
2022-11-04T21:11:46.289Z,99.04
2022-11-04T21:14:16.612Z,99.00
2022-11-04T21:16:44.009Z,98.59
2022-11-04T21:19:12.129Z,99.28
2022-11-04T21:21:43.710Z,98.83
2022-11-04T21:24:14.185Z,99.41
2022-11-04T21:26:42.985Z,99.40
2022-11-04T21:29:15.455Z,99.55
2022-11-04T21:31:44.239Z,99.70
2022-11-04T21:34:12.151Z,99.87
2022-11-04T21:36:40.470Z,99.86
2022-11-04T21:39:10.828Z,99.45
2022-11-04T21:41:38.651Z,99.36
2022-11-04T21:44:09.781Z,100.00
2022-11-04T21:46:38.202Z,99.61
2022-11-04T21:49:06.242Z,99.49
2022-11-04T21:51:34.839Z,99.65
2022-11-04T21:54:06.942Z,100.00
2022-11-04T21:56:35.383Z,99.93
2022-11-04T21:59:03.663Z,99.75
2022-11-04T22:01:31.839Z,99.99
2022-11-04T22:04:01.988Z,99.76
2022-11-04T22:06:34.791Z,99.50
2022-11-04T22:09:06.626Z,100.00
2022-11-04T22:11:39.601Z,100.00
2022-11-04T22:14:10.699Z,99.96
2022-11-04T22:16:39.444Z,100.00
2022-11-04T22:19:10.623Z,100.00
2022-11-04T22:21:41.103Z,100.00
2022-11-04T22:24:12.717Z,100.00
2022-11-04T22:26:41.106Z,100.00
2022-11-04T22:29:10.008Z,100.00
2022-11-04T22:31:41.835Z,100.00
2022-11-04T22:34:09.787Z,100.00
2022-11-04T22:36:37.972Z,100.00
2022-11-04T22:39:05.636Z,100.00
2022-11-04T22:41:35.477Z,100.00
2022-11-04T22:44:03.528Z,100.00
2022-11-04T22:46:35.038Z,100.00
2022-11-04T22:49:02.534Z,100.00
2022-11-04T22:51:31.317Z,100.00
2022-11-04T22:54:04.560Z,100.00
2022-11-04T22:56:36.055Z,100.00
2022-11-04T22:59:04.123Z,100.00
2022-11-04T23:01:33.072Z,100.00
2022-11-04T23:04:00.672Z,100.00
2022-11-04T23:06:28.276Z,100.00
2022-11-04T23:08:59.972Z,100.00
2022-11-04T23:11:48.962Z,100.00
2022-11-04T23:14:39.543Z,100.00
2022-11-04T23:17:40.843Z,100.00
2022-11-04T23:20:13.476Z,100.00
2022-11-04T23:23:00.411Z,100.00
2022-11-04T23:25:28.243Z,100.00
2022-11-04T23:28:14.593Z,100.00
2022-11-04T23:30:46.262Z,100.00
2022-11-04T23:33:15.216Z,100.00
2022-11-04T23:36:07.562Z,100.00
2022-11-04T23:38:37.890Z,100.00
2022-11-04T23:41:26.457Z,100.00
2022-11-04T23:43:53.818Z,100.00
2022-11-04T23:46:43.496Z,100.00
2022-11-04T23:49:14.568Z,100.00
2022-11-04T23:52:00.650Z,100.00
2022-11-04T23:54:46.946Z,100.00
2022-11-04T23:57:37.620Z,100.00
